ROMMA est une association bénévole à but non lucratif. Votre soutien est indispensable : ADHERER à ROMMA ou FAIRE un DON

Pommerol - (26, Drôme)

Baronnies (780 m)   Longitude: 5° 27' 28.8"   Latitude: 44° 26' 23'' N Station partenaire n°78
 

Détail journalier du     <<     >>

Température Precipitation Humidité Pression Vent Dir Rafale Dir. rafale
Heure (°C) (mm) (%) (hPa) (km/h) (km/h)
01:00 10.606310156ONO32ONO
02:00 9.706310155ONO26NO
03:00 9.006410143ONO27O
04:00 8.906210133ONO24O
05:00 8.706110131SE21NNO
06:00 8.206010141O15O
07:00 8.305910143ONO24ONO
08:00 7.606210142ONO24NO
09:00 8.306010151ONO16ONO
10:00 9.805710162NO18ONO
11:00 11.905010152ONO15NO
12:00 13.504510152ONO13ONO
13:00 14.404210154NO21NO
14:00 15.404310143ONO15ONO
15:00 16.104110145ONO19ONO
16:00 15.904410149ONO23ONO
17:00 15.304610146ONO23O
18:00 14.705010142ONO13ONO
19:00 13.405310152ONO10ONO
20:00 13.005510151ONO18ONO
21:00 12.305810161ONO19ONO
22:00 10.2068101603ONO
23:00 7.4080101600
minuit 6.4082101700

Graphique du 03-10-2019

 

Serveur OMMA